sensor_id;sensor_type;location;lat;lon;timestamp;P1;durP1;ratioP1;P2;durP2;ratioP2
27303;SDS011;14791;52.392;13.092;2023-05-07T00:00:03;5.73;;;5.53;;
27303;SDS011;14791;52.392;13.092;2023-05-07T00:02:35;5.47;;;5.27;;
27303;SDS011;14791;52.392;13.092;2023-05-07T00:05:06;5.73;;;5.43;;
27303;SDS011;14791;52.392;13.092;2023-05-07T00:07:35;5.33;;;5.03;;
27303;SDS011;14791;52.392;13.092;2023-05-07T00:10:05;5.70;;;5.40;;
27303;SDS011;14791;52.392;13.092;2023-05-07T00:12:35;5.10;;;4.87;;
27303;SDS011;14791;52.392;13.092;2023-05-07T00:15:04;4.43;;;4.23;;
27303;SDS011;14791;52.392;13.092;2023-05-07T00:17:34;5.30;;;5.10;;
27303;SDS011;14791;52.392;13.092;2023-05-07T00:20:03;5.13;;;4.93;;
27303;SDS011;14791;52.392;13.092;2023-05-07T00:22:33;4.80;;;4.60;;
27303;SDS011;14791;52.392;13.092;2023-05-07T00:25:02;5.20;;;4.90;;
27303;SDS011;14791;52.392;13.092;2023-05-07T00:27:31;5.00;;;4.80;;
27303;SDS011;14791;52.392;13.092;2023-05-07T00:30:00;5.53;;;5.33;;
27303;SDS011;14791;52.392;13.092;2023-05-07T00:32:29;4.83;;;4.63;;
27303;SDS011;14791;52.392;13.092;2023-05-07T00:34:58;5.57;;;5.27;;
27303;SDS011;14791;52.392;13.092;2023-05-07T00:37:27;4.70;;;4.50;;
27303;SDS011;14791;52.392;13.092;2023-05-07T00:39:57;4.20;;;4.00;;
27303;SDS011;14791;52.392;13.092;2023-05-07T00:42:26;4.63;;;4.43;;
27303;SDS011;14791;52.392;13.092;2023-05-07T00:44:56;5.13;;;4.93;;
27303;SDS011;14791;52.392;13.092;2023-05-07T00:47:25;4.40;;;4.20;;
27303;SDS011;14791;52.392;13.092;2023-05-07T00:49:54;4.80;;;4.53;;
27303;SDS011;14791;52.392;13.092;2023-05-07T00:52:25;4.07;;;3.97;;
27303;SDS011;14791;52.392;13.092;2023-05-07T00:54:55;4.53;;;4.43;;
27303;SDS011;14791;52.392;13.092;2023-05-07T00:57:24;4.43;;;4.20;;
27303;SDS011;14791;52.392;13.092;2023-05-07T00:59:53;5.00;;;4.80;;
27303;SDS011;14791;52.392;13.092;2023-05-07T01:02:22;4.73;;;4.53;;
27303;SDS011;14791;52.392;13.092;2023-05-07T01:04:51;4.67;;;4.47;;
27303;SDS011;14791;52.392;13.092;2023-05-07T01:07:20;4.63;;;4.43;;
27303;SDS011;14791;52.392;13.092;2023-05-07T01:09:49;4.47;;;4.17;;
27303;SDS011;14791;52.392;13.092;2023-05-07T01:12:19;4.70;;;4.40;;
27303;SDS011;14791;52.392;13.092;2023-05-07T01:14:49;4.47;;;4.27;;
27303;SDS011;14791;52.392;13.092;2023-05-07T01:17:18;4.07;;;3.90;;
27303;SDS011;14791;52.392;13.092;2023-05-07T01:19:47;4.73;;;4.53;;
27303;SDS011;14791;52.392;13.092;2023-05-07T01:22:23;4.50;;;4.40;;
27303;SDS011;14791;52.392;13.092;2023-05-07T01:24:52;3.63;;;3.53;;
27303;SDS011;14791;52.392;13.092;2023-05-07T01:27:23;4.53;;;4.33;;
27303;SDS011;14791;52.392;13.092;2023-05-07T01:29:52;4.27;;;4.07;;
27303;SDS011;14791;52.392;13.092;2023-05-07T01:32:28;4.27;;;4.13;;
27303;SDS011;14791;52.392;13.092;2023-05-07T01:34:55;3.73;;;3.63;;
27303;SDS011;14791;52.392;13.092;2023-05-07T01:37:26;3.87;;;3.73;;
27303;SDS011;14791;52.392;13.092;2023-05-07T01:39:56;3.77;;;3.67;;
27303;SDS011;14791;52.392;13.092;2023-05-07T01:42:25;3.77;;;3.67;;
27303;SDS011;14791;52.392;13.092;2023-05-07T01:44:55;4.03;;;3.83;;
27303;SDS011;14791;52.392;13.092;2023-05-07T01:47:24;3.63;;;3.53;;
27303;SDS011;14791;52.392;13.092;2023-05-07T01:49:54;3.90;;;3.80;;
27303;SDS011;14791;52.392;13.092;2023-05-07T01:52:23;3.70;;;3.60;;
27303;SDS011;14791;52.392;13.092;2023-05-07T01:54:52;3.70;;;3.60;;
27303;SDS011;14791;52.392;13.092;2023-05-07T01:57:22;4.20;;;4.10;;
27303;SDS011;14791;52.392;13.092;2023-05-07T01:59:51;3.57;;;3.47;;
27303;SDS011;14791;52.392;13.092;2023-05-07T02:02:19;3.87;;;3.67;;
27303;SDS011;14791;52.392;13.092;2023-05-07T02:04:49;3.00;;;2.90;;
27303;SDS011;14791;52.392;13.092;2023-05-07T02:07:18;3.20;;;3.10;;
27303;SDS011;14791;52.392;13.092;2023-05-07T02:09:47;3.43;;;3.33;;
27303;SDS011;14791;52.392;13.092;2023-05-07T02:12:16;3.10;;;3.00;;
27303;SDS011;14791;52.392;13.092;2023-05-07T02:14:46;4.07;;;3.87;;
27303;SDS011;14791;52.392;13.092;2023-05-07T02:17:15;3.57;;;3.47;;
27303;SDS011;14791;52.392;13.092;2023-05-07T02:19:44;4.07;;;3.97;;
27303;SDS011;14791;52.392;13.092;2023-05-07T02:22:13;3.60;;;3.50;;
27303;SDS011;14791;52.392;13.092;2023-05-07T02:24:42;3.43;;;3.33;;
27303;SDS011;14791;52.392;13.092;2023-05-07T02:27:11;3.47;;;3.27;;
27303;SDS011;14791;52.392;13.092;2023-05-07T02:29:41;3.33;;;3.23;;
27303;SDS011;14791;52.392;13.092;2023-05-07T02:32:10;3.00;;;2.90;;
27303;SDS011;14791;52.392;13.092;2023-05-07T02:34:38;3.60;;;3.50;;
27303;SDS011;14791;52.392;13.092;2023-05-07T02:37:08;3.70;;;3.60;;
27303;SDS011;14791;52.392;13.092;2023-05-07T02:39:37;3.20;;;3.10;;
27303;SDS011;14791;52.392;13.092;2023-05-07T02:42:06;3.07;;;2.97;;
27303;SDS011;14791;52.392;13.092;2023-05-07T02:44:36;3.20;;;3.10;;
27303;SDS011;14791;52.392;13.092;2023-05-07T02:47:05;2.70;;;2.60;;
27303;SDS011;14791;52.392;13.092;2023-05-07T02:49:36;3.37;;;3.27;;
27303;SDS011;14791;52.392;13.092;2023-05-07T08:58:03;1.77;;;1.77;;
27303;SDS011;14791;52.392;13.092;2023-05-07T09:00:35;1.60;;;1.60;;
27303;SDS011;14791;52.392;13.092;2023-05-07T09:03:06;1.70;;;1.70;;
27303;SDS011;14791;52.392;13.092;2023-05-07T09:05:36;1.62;;;1.62;;
27303;SDS011;14791;52.392;13.092;2023-05-07T09:08:08;1.50;;;1.50;;
27303;SDS011;14791;52.392;13.092;2023-05-07T09:10:37;1.40;;;1.40;;
27303;SDS011;14791;52.392;13.092;2023-05-07T09:13:07;1.40;;;1.40;;
27303;SDS011;14791;52.392;13.092;2023-05-07T09:15:38;1.55;;;1.55;;
27303;SDS011;14791;52.392;13.092;2023-05-07T09:18:07;1.15;;;1.15;;
27303;SDS011;14791;52.392;13.092;2023-05-07T09:20:37;1.67;;;1.60;;
27303;SDS011;14791;52.392;13.092;2023-05-07T09:23:07;1.52;;;1.52;;
27303;SDS011;14791;52.392;13.092;2023-05-07T09:25:37;1.60;;;1.60;;
27303;SDS011;14791;52.392;13.092;2023-05-07T09:28:08;1.50;;;1.50;;
27303;SDS011;14791;52.392;13.092;2023-05-07T09:30:37;1.55;;;1.55;;
27303;SDS011;14791;52.392;13.092;2023-05-07T09:33:07;1.87;;;1.87;;
27303;SDS011;14791;52.392;13.092;2023-05-07T09:35:38;1.40;;;1.40;;
27303;SDS011;14791;52.392;13.092;2023-05-07T09:38:09;1.20;;;1.20;;
27303;SDS011;14791;52.392;13.092;2023-05-07T09:40:39;1.45;;;1.40;;
27303;SDS011;14791;52.392;13.092;2023-05-07T09:43:10;1.30;;;1.30;;
27303;SDS011;14791;52.392;13.092;2023-05-07T09:45:42;1.67;;;1.67;;
27303;SDS011;14791;52.392;13.092;2023-05-07T09:48:12;1.63;;;1.63;;
27303;SDS011;14791;52.392;13.092;2023-05-07T09:50:48;1.75;;;1.75;;
27303;SDS011;14791;52.392;13.092;2023-05-07T09:53:18;1.30;;;1.30;;
27303;SDS011;14791;52.392;13.092;2023-05-07T09:55:48;1.30;;;1.30;;
27303;SDS011;14791;52.392;13.092;2023-05-07T09:58:19;1.47;;;1.47;;
27303;SDS011;14791;52.392;13.092;2023-05-07T10:00:50;1.47;;;1.47;;
27303;SDS011;14791;52.392;13.092;2023-05-07T10:03:20;1.15;;;1.15;;
27303;SDS011;14791;52.392;13.092;2023-05-07T10:05:53;1.15;;;1.15;;
27303;SDS011;14791;52.392;13.092;2023-05-07T10:08:23;1.27;;;1.27;;
27303;SDS011;14791;52.392;13.092;2023-05-07T10:10:54;1.25;;;1.25;;
27303;SDS011;14791;52.392;13.092;2023-05-07T10:13:24;1.25;;;1.25;;
27303;SDS011;14791;52.392;13.092;2023-05-07T10:15:55;1.40;;;1.40;;
27303;SDS011;14791;52.392;13.092;2023-05-07T10:18:25;1.10;;;1.10;;
27303;SDS011;14791;52.392;13.092;2023-05-07T10:21:04;1.22;;;1.22;;
27303;SDS011;14791;52.392;13.092;2023-05-07T10:23:30;1.10;;;1.10;;
27303;SDS011;14791;52.392;13.092;2023-05-07T10:26:02;1.10;;;1.10;;
27303;SDS011;14791;52.392;13.092;2023-05-07T10:28:34;1.60;;;1.10;;
27303;SDS011;14791;52.392;13.092;2023-05-07T10:34:07;1.15;;;1.15;;
27303;SDS011;14791;52.392;13.092;2023-05-07T10:36:39;1.07;;;1.07;;
27303;SDS011;14791;52.392;13.092;2023-05-07T10:39:10;1.12;;;1.12;;
27303;SDS011;14791;52.392;13.092;2023-05-07T10:41:39;1.47;;;1.47;;
27303;SDS011;14791;52.392;13.092;2023-05-07T10:44:10;1.25;;;1.25;;
27303;SDS011;14791;52.392;13.092;2023-05-07T10:46:39;1.22;;;1.22;;
27303;SDS011;14791;52.392;13.092;2023-05-07T10:49:10;1.20;;;1.20;;
27303;SDS011;14791;52.392;13.092;2023-05-07T10:52:13;0.93;;;0.93;;
27303;SDS011;14791;52.392;13.092;2023-05-07T10:58:17;0.93;;;0.93;;
27303;SDS011;14791;52.392;13.092;2023-05-07T11:00:48;1.12;;;1.12;;
27303;SDS011;14791;52.392;13.092;2023-05-07T11:03:20;1.20;;;1.20;;
27303;SDS011;14791;52.392;13.092;2023-05-07T11:11:47;1.00;;;1.00;;
27303;SDS011;14791;52.392;13.092;2023-05-07T11:14:42;0.90;;;0.90;;
27303;SDS011;14791;52.392;13.092;2023-05-07T11:17:12;1.10;;;1.10;;
27303;SDS011;14791;52.392;13.092;2023-05-07T11:19:53;1.25;;;1.25;;
27303;SDS011;14791;52.392;13.092;2023-05-07T11:22:37;1.00;;;1.00;;
27303;SDS011;14791;52.392;13.092;2023-05-07T11:25:26;0.70;;;0.70;;
27303;SDS011;14791;52.392;13.092;2023-05-07T11:28:07;1.07;;;1.07;;
27303;SDS011;14791;52.392;13.092;2023-05-07T11:30:42;1.30;;;1.15;;
27303;SDS011;14791;52.392;13.092;2023-05-07T11:33:13;1.02;;;1.02;;
27303;SDS011;14791;52.392;13.092;2023-05-07T11:35:45;1.05;;;1.05;;
27303;SDS011;14791;52.392;13.092;2023-05-07T11:38:15;0.88;;;0.82;;
27303;SDS011;14791;52.392;13.092;2023-05-07T11:40:52;0.90;;;0.90;;
27303;SDS011;14791;52.392;13.092;2023-05-07T11:43:29;0.85;;;0.85;;
27303;SDS011;14791;52.392;13.092;2023-05-07T11:46:06;0.80;;;0.80;;
27303;SDS011;14791;52.392;13.092;2023-05-07T11:48:41;0.98;;;0.98;;
27303;SDS011;14791;52.392;13.092;2023-05-07T11:51:11;1.00;;;1.00;;
27303;SDS011;14791;52.392;13.092;2023-05-07T11:53:41;0.90;;;0.90;;
27303;SDS011;14791;52.392;13.092;2023-05-07T11:56:11;1.15;;;1.15;;
27303;SDS011;14791;52.392;13.092;2023-05-07T11:58:42;0.90;;;0.90;;
27303;SDS011;14791;52.392;13.092;2023-05-07T12:01:12;1.10;;;1.10;;
27303;SDS011;14791;52.392;13.092;2023-05-07T12:03:43;0.70;;;0.70;;
27303;SDS011;14791;52.392;13.092;2023-05-07T12:06:14;1.00;;;1.00;;
27303;SDS011;14791;52.392;13.092;2023-05-07T12:08:44;1.35;;;0.98;;
27303;SDS011;14791;52.392;13.092;2023-05-07T12:11:15;1.40;;;1.30;;
27303;SDS011;14791;52.392;13.092;2023-05-07T12:13:47;1.12;;;1.12;;
27303;SDS011;14791;52.392;13.092;2023-05-07T12:16:16;0.72;;;0.72;;
27303;SDS011;14791;52.392;13.092;2023-05-07T12:18:45;0.95;;;0.95;;
27303;SDS011;14791;52.392;13.092;2023-05-07T12:21:15;0.80;;;0.80;;
27303;SDS011;14791;52.392;13.092;2023-05-07T12:23:45;1.02;;;1.02;;
27303;SDS011;14791;52.392;13.092;2023-05-07T12:26:14;1.00;;;1.00;;
27303;SDS011;14791;52.392;13.092;2023-05-07T12:28:44;1.00;;;1.00;;
27303;SDS011;14791;52.392;13.092;2023-05-07T12:31:13;0.98;;;0.98;;
27303;SDS011;14791;52.392;13.092;2023-05-07T12:33:43;2.25;;;2.15;;
27303;SDS011;14791;52.392;13.092;2023-05-07T12:36:12;1.62;;;1.52;;
27303;SDS011;14791;52.392;13.092;2023-05-07T12:38:42;1.07;;;1.00;;
27303;SDS011;14791;52.392;13.092;2023-05-07T12:41:10;1.00;;;1.00;;
27303;SDS011;14791;52.392;13.092;2023-05-07T12:43:39;0.70;;;0.70;;
27303;SDS011;14791;52.392;13.092;2023-05-07T12:46:10;0.90;;;0.90;;
27303;SDS011;14791;52.392;13.092;2023-05-07T12:48:46;1.05;;;1.05;;
27303;SDS011;14791;52.392;13.092;2023-05-07T12:51:14;0.90;;;0.90;;
27303;SDS011;14791;52.392;13.092;2023-05-07T12:53:44;0.90;;;0.90;;
27303;SDS011;14791;52.392;13.092;2023-05-07T12:56:15;1.00;;;1.00;;
27303;SDS011;14791;52.392;13.092;2023-05-07T12:58:44;0.90;;;0.90;;
27303;SDS011;14791;52.392;13.092;2023-05-07T13:01:13;1.95;;;1.07;;
27303;SDS011;14791;52.392;13.092;2023-05-07T13:03:47;0.55;;;0.55;;
27303;SDS011;14791;52.392;13.092;2023-05-07T13:06:18;0.95;;;0.95;;
27303;SDS011;14791;52.392;13.092;2023-05-07T13:08:47;1.52;;;1.52;;
27303;SDS011;14791;52.392;13.092;2023-05-07T13:11:17;1.10;;;1.10;;
27303;SDS011;14791;52.392;13.092;2023-05-07T13:13:46;0.93;;;0.93;;
27303;SDS011;14791;52.392;13.092;2023-05-07T13:16:15;1.10;;;1.10;;
27303;SDS011;14791;52.392;13.092;2023-05-07T13:18:44;1.17;;;1.17;;
27303;SDS011;14791;52.392;13.092;2023-05-07T13:21:13;2.10;;;1.17;;
27303;SDS011;14791;52.392;13.092;2023-05-07T13:23:41;1.10;;;1.10;;
27303;SDS011;14791;52.392;13.092;2023-05-07T13:26:10;0.90;;;0.90;;
27303;SDS011;14791;52.392;13.092;2023-05-07T13:28:39;0.80;;;0.80;;
27303;SDS011;14791;52.392;13.092;2023-05-07T13:31:08;0.90;;;0.90;;
27303;SDS011;14791;52.392;13.092;2023-05-07T13:33:37;1.05;;;1.05;;
27303;SDS011;14791;52.392;13.092;2023-05-07T13:36:06;0.90;;;0.90;;
27303;SDS011;14791;52.392;13.092;2023-05-07T13:38:36;1.00;;;1.00;;
27303;SDS011;14791;52.392;13.092;2023-05-07T13:41:05;0.85;;;0.85;;
27303;SDS011;14791;52.392;13.092;2023-05-07T13:43:34;0.80;;;0.80;;
27303;SDS011;14791;52.392;13.092;2023-05-07T13:46:03;1.60;;;1.60;;
27303;SDS011;14791;52.392;13.092;2023-05-07T13:48:32;1.07;;;1.07;;
27303;SDS011;14791;52.392;13.092;2023-05-07T13:51:01;0.85;;;0.85;;
27303;SDS011;14791;52.392;13.092;2023-05-07T13:53:31;0.72;;;0.72;;
27303;SDS011;14791;52.392;13.092;2023-05-07T13:56:01;0.75;;;0.75;;
27303;SDS011;14791;52.392;13.092;2023-05-07T13:58:31;0.85;;;0.85;;
27303;SDS011;14791;52.392;13.092;2023-05-07T14:01:00;0.80;;;0.80;;
27303;SDS011;14791;52.392;13.092;2023-05-07T14:03:29;0.70;;;0.70;;
27303;SDS011;14791;52.392;13.092;2023-05-07T14:06:00;0.93;;;0.93;;
27303;SDS011;14791;52.392;13.092;2023-05-07T14:08:29;0.80;;;0.80;;
27303;SDS011;14791;52.392;13.092;2023-05-07T14:10:58;1.00;;;1.00;;
27303;SDS011;14791;52.392;13.092;2023-05-07T14:13:27;0.98;;;0.90;;
27303;SDS011;14791;52.392;13.092;2023-05-07T14:15:57;0.90;;;0.90;;
27303;SDS011;14791;52.392;13.092;2023-05-07T14:18:27;0.90;;;0.90;;
27303;SDS011;14791;52.392;13.092;2023-05-07T14:20:56;0.88;;;0.88;;
27303;SDS011;14791;52.392;13.092;2023-05-07T14:23:25;0.88;;;0.88;;
27303;SDS011;14791;52.392;13.092;2023-05-07T14:25:54;0.90;;;0.90;;
27303;SDS011;14791;52.392;13.092;2023-05-07T14:28:24;0.70;;;0.70;;
27303;SDS011;14791;52.392;13.092;2023-05-07T14:30:53;0.72;;;0.72;;
27303;SDS011;14791;52.392;13.092;2023-05-07T14:33:21;0.80;;;0.80;;
27303;SDS011;14791;52.392;13.092;2023-05-07T14:35:50;0.85;;;0.85;;
27303;SDS011;14791;52.392;13.092;2023-05-07T14:38:19;0.95;;;0.95;;
27303;SDS011;14791;52.392;13.092;2023-05-07T14:40:48;1.07;;;1.07;;
27303;SDS011;14791;52.392;13.092;2023-05-07T14:43:19;0.72;;;0.72;;
27303;SDS011;14791;52.392;13.092;2023-05-07T14:45:48;0.70;;;0.70;;
27303;SDS011;14791;52.392;13.092;2023-05-07T14:48:17;0.95;;;0.95;;
27303;SDS011;14791;52.392;13.092;2023-05-07T14:50:47;0.90;;;0.90;;
27303;SDS011;14791;52.392;13.092;2023-05-07T14:53:16;0.80;;;0.80;;
27303;SDS011;14791;52.392;13.092;2023-05-07T14:55:46;0.78;;;0.78;;
27303;SDS011;14791;52.392;13.092;2023-05-07T14:58:16;0.85;;;0.85;;
27303;SDS011;14791;52.392;13.092;2023-05-07T15:00:45;0.90;;;0.90;;
27303;SDS011;14791;52.392;13.092;2023-05-07T15:03:14;0.80;;;0.80;;
27303;SDS011;14791;52.392;13.092;2023-05-07T15:05:43;1.10;;;1.00;;
27303;SDS011;14791;52.392;13.092;2023-05-07T15:08:12;0.75;;;0.75;;
27303;SDS011;14791;52.392;13.092;2023-05-07T15:10:41;0.80;;;0.80;;
27303;SDS011;14791;52.392;13.092;2023-05-07T15:13:11;0.90;;;0.90;;
27303;SDS011;14791;52.392;13.092;2023-05-07T15:15:41;0.80;;;0.80;;
27303;SDS011;14791;52.392;13.092;2023-05-07T15:18:11;0.78;;;0.78;;
27303;SDS011;14791;52.392;13.092;2023-05-07T15:20:40;0.80;;;0.80;;
27303;SDS011;14791;52.392;13.092;2023-05-07T15:23:09;0.90;;;0.90;;
27303;SDS011;14791;52.392;13.092;2023-05-07T15:25:43;1.00;;;1.00;;
27303;SDS011;14791;52.392;13.092;2023-05-07T15:28:12;0.90;;;0.90;;
27303;SDS011;14791;52.392;13.092;2023-05-07T15:30:41;0.85;;;0.85;;
27303;SDS011;14791;52.392;13.092;2023-05-07T15:33:10;0.82;;;0.82;;
27303;SDS011;14791;52.392;13.092;2023-05-07T15:35:39;1.90;;;1.90;;
27303;SDS011;14791;52.392;13.092;2023-05-07T15:38:08;1.62;;;1.40;;
27303;SDS011;14791;52.392;13.092;2023-05-07T15:40:37;1.15;;;1.15;;
27303;SDS011;14791;52.392;13.092;2023-05-07T15:43:11;0.90;;;0.90;;
27303;SDS011;14791;52.392;13.092;2023-05-07T15:45:41;0.90;;;0.90;;
27303;SDS011;14791;52.392;13.092;2023-05-07T15:48:10;0.80;;;0.80;;
27303;SDS011;14791;52.392;13.092;2023-05-07T15:50:39;1.30;;;1.30;;
27303;SDS011;14791;52.392;13.092;2023-05-07T15:53:08;1.20;;;1.20;;
27303;SDS011;14791;52.392;13.092;2023-05-07T15:55:39;1.20;;;1.10;;
27303;SDS011;14791;52.392;13.092;2023-05-07T15:58:10;0.88;;;0.88;;
27303;SDS011;14791;52.392;13.092;2023-05-07T16:00:39;0.80;;;0.80;;
27303;SDS011;14791;52.392;13.092;2023-05-07T16:03:08;0.80;;;0.80;;
27303;SDS011;14791;52.392;13.092;2023-05-07T16:05:37;0.70;;;0.70;;
27303;SDS011;14791;52.392;13.092;2023-05-07T16:08:05;0.65;;;0.65;;
27303;SDS011;14791;52.392;13.092;2023-05-07T16:10:34;0.80;;;0.80;;
27303;SDS011;14791;52.392;13.092;2023-05-07T16:13:03;1.10;;;1.10;;
27303;SDS011;14791;52.392;13.092;2023-05-07T16:15:33;0.90;;;0.90;;
27303;SDS011;14791;52.392;13.092;2023-05-07T16:18:08;0.93;;;0.93;;
27303;SDS011;14791;52.392;13.092;2023-05-07T16:20:34;0.70;;;0.70;;
27303;SDS011;14791;52.392;13.092;2023-05-07T16:23:03;0.75;;;0.75;;
27303;SDS011;14791;52.392;13.092;2023-05-07T16:25:32;0.80;;;0.80;;
27303;SDS011;14791;52.392;13.092;2023-05-07T16:28:01;0.80;;;0.80;;
27303;SDS011;14791;52.392;13.092;2023-05-07T16:30:30;1.32;;;1.32;;
27303;SDS011;14791;52.392;13.092;2023-05-07T16:32:59;1.10;;;1.10;;
27303;SDS011;14791;52.392;13.092;2023-05-07T16:35:28;1.17;;;1.17;;
27303;SDS011;14791;52.392;13.092;2023-05-07T16:37:57;1.20;;;1.20;;
27303;SDS011;14791;52.392;13.092;2023-05-07T16:40:27;1.00;;;1.00;;
27303;SDS011;14791;52.392;13.092;2023-05-07T16:42:56;1.17;;;1.17;;
27303;SDS011;14791;52.392;13.092;2023-05-07T16:45:24;1.25;;;1.25;;
27303;SDS011;14791;52.392;13.092;2023-05-07T16:47:53;0.98;;;0.98;;
27303;SDS011;14791;52.392;13.092;2023-05-07T16:50:24;1.12;;;1.12;;
27303;SDS011;14791;52.392;13.092;2023-05-07T16:52:53;0.88;;;0.88;;
27303;SDS011;14791;52.392;13.092;2023-05-07T16:55:22;1.17;;;1.17;;
27303;SDS011;14791;52.392;13.092;2023-05-07T16:57:51;1.17;;;1.17;;
27303;SDS011;14791;52.392;13.092;2023-05-07T17:00:21;1.07;;;1.07;;
27303;SDS011;14791;52.392;13.092;2023-05-07T17:02:50;0.80;;;0.80;;
27303;SDS011;14791;52.392;13.092;2023-05-07T17:05:20;1.17;;;1.17;;
27303;SDS011;14791;52.392;13.092;2023-05-07T17:07:49;1.15;;;1.15;;
27303;SDS011;14791;52.392;13.092;2023-05-07T17:10:18;1.32;;;1.12;;
27303;SDS011;14791;52.392;13.092;2023-05-07T17:12:48;0.80;;;0.80;;
27303;SDS011;14791;52.392;13.092;2023-05-07T17:15:17;0.90;;;0.90;;
27303;SDS011;14791;52.392;13.092;2023-05-07T17:17:46;1.05;;;1.05;;
27303;SDS011;14791;52.392;13.092;2023-05-07T17:20:15;1.15;;;1.15;;
27303;SDS011;14791;52.392;13.092;2023-05-07T17:22:44;1.40;;;1.40;;
27303;SDS011;14791;52.392;13.092;2023-05-07T17:25:13;0.90;;;0.90;;
27303;SDS011;14791;52.392;13.092;2023-05-07T17:27:42;0.90;;;0.90;;
27303;SDS011;14791;52.392;13.092;2023-05-07T17:30:12;0.80;;;0.80;;
27303;SDS011;14791;52.392;13.092;2023-05-07T17:32:42;2.15;;;0.98;;
27303;SDS011;14791;52.392;13.092;2023-05-07T17:35:10;1.05;;;1.05;;
27303;SDS011;14791;52.392;13.092;2023-05-07T17:37:39;1.10;;;1.10;;
27303;SDS011;14791;52.392;13.092;2023-05-07T17:40:10;1.30;;;1.30;;
27303;SDS011;14791;52.392;13.092;2023-05-07T17:42:39;1.10;;;1.10;;
27303;SDS011;14791;52.392;13.092;2023-05-07T17:45:08;1.05;;;1.05;;
27303;SDS011;14791;52.392;13.092;2023-05-07T17:47:38;1.20;;;1.20;;
27303;SDS011;14791;52.392;13.092;2023-05-07T17:50:07;1.40;;;1.40;;
27303;SDS011;14791;52.392;13.092;2023-05-07T17:52:37;1.20;;;1.20;;
27303;SDS011;14791;52.392;13.092;2023-05-07T17:55:07;0.95;;;0.80;;
27303;SDS011;14791;52.392;13.092;2023-05-07T17:57:37;0.95;;;0.95;;
27303;SDS011;14791;52.392;13.092;2023-05-07T18:00:06;0.90;;;0.90;;
27303;SDS011;14791;52.392;13.092;2023-05-07T18:02:36;1.05;;;0.95;;
27303;SDS011;14791;52.392;13.092;2023-05-07T18:05:07;0.98;;;0.98;;
27303;SDS011;14791;52.392;13.092;2023-05-07T18:07:36;0.70;;;0.70;;
27303;SDS011;14791;52.392;13.092;2023-05-07T18:10:05;0.90;;;0.90;;
27303;SDS011;14791;52.392;13.092;2023-05-07T18:12:35;0.80;;;0.80;;
27303;SDS011;14791;52.392;13.092;2023-05-07T18:15:04;1.00;;;1.00;;
27303;SDS011;14791;52.392;13.092;2023-05-07T18:17:34;0.85;;;0.85;;
27303;SDS011;14791;52.392;13.092;2023-05-07T18:20:03;0.88;;;0.88;;
27303;SDS011;14791;52.392;13.092;2023-05-07T18:22:34;0.72;;;0.72;;
27303;SDS011;14791;52.392;13.092;2023-05-07T18:25:04;0.78;;;0.78;;
27303;SDS011;14791;52.392;13.092;2023-05-07T18:27:34;0.70;;;0.70;;
27303;SDS011;14791;52.392;13.092;2023-05-07T18:30:03;0.60;;;0.60;;
27303;SDS011;14791;52.392;13.092;2023-05-07T18:32:33;1.12;;;0.85;;
27303;SDS011;14791;52.392;13.092;2023-05-07T18:35:02;1.00;;;1.00;;
27303;SDS011;14791;52.392;13.092;2023-05-07T18:37:32;1.10;;;1.10;;
27303;SDS011;14791;52.392;13.092;2023-05-07T18:40:01;0.75;;;0.75;;
27303;SDS011;14791;52.392;13.092;2023-05-07T18:42:31;0.90;;;0.90;;
27303;SDS011;14791;52.392;13.092;2023-05-07T18:45:00;0.80;;;0.80;;
27303;SDS011;14791;52.392;13.092;2023-05-07T18:47:29;0.88;;;0.88;;
27303;SDS011;14791;52.392;13.092;2023-05-07T18:49:58;0.75;;;0.75;;
27303;SDS011;14791;52.392;13.092;2023-05-07T18:52:27;0.90;;;0.90;;
27303;SDS011;14791;52.392;13.092;2023-05-07T18:54:56;0.90;;;0.90;;
27303;SDS011;14791;52.392;13.092;2023-05-07T18:57:25;0.80;;;0.80;;
27303;SDS011;14791;52.392;13.092;2023-05-07T18:59:55;0.70;;;0.70;;
27303;SDS011;14791;52.392;13.092;2023-05-07T19:02:24;0.80;;;0.80;;
27303;SDS011;14791;52.392;13.092;2023-05-07T19:04:53;1.10;;;1.10;;
27303;SDS011;14791;52.392;13.092;2023-05-07T19:07:22;0.88;;;0.88;;
27303;SDS011;14791;52.392;13.092;2023-05-07T19:09:51;1.30;;;1.30;;
27303;SDS011;14791;52.392;13.092;2023-05-07T19:12:20;2.27;;;2.27;;
27303;SDS011;14791;52.392;13.092;2023-05-07T19:14:49;1.62;;;1.52;;
27303;SDS011;14791;52.392;13.092;2023-05-07T19:17:20;1.30;;;1.30;;
27303;SDS011;14791;52.392;13.092;2023-05-07T19:19:49;1.05;;;1.05;;
27303;SDS011;14791;52.392;13.092;2023-05-07T19:22:18;0.90;;;0.90;;
27303;SDS011;14791;52.392;13.092;2023-05-07T19:24:47;0.95;;;0.95;;
27303;SDS011;14791;52.392;13.092;2023-05-07T19:27:16;1.03;;;1.03;;
27303;SDS011;14791;52.392;13.092;2023-05-07T19:29:45;1.05;;;1.05;;
27303;SDS011;14791;52.392;13.092;2023-05-07T19:32:14;1.37;;;1.37;;
27303;SDS011;14791;52.392;13.092;2023-05-07T19:34:43;1.20;;;1.20;;
27303;SDS011;14791;52.392;13.092;2023-05-07T19:37:11;1.00;;;1.00;;
27303;SDS011;14791;52.392;13.092;2023-05-07T19:39:40;0.90;;;0.90;;
27303;SDS011;14791;52.392;13.092;2023-05-07T19:42:09;0.80;;;0.80;;
27303;SDS011;14791;52.392;13.092;2023-05-07T19:44:40;0.95;;;0.95;;
27303;SDS011;14791;52.392;13.092;2023-05-07T19:47:08;1.22;;;1.10;;
27303;SDS011;14791;52.392;13.092;2023-05-07T19:49:37;1.00;;;1.00;;
27303;SDS011;14791;52.392;13.092;2023-05-07T19:52:06;0.90;;;0.90;;
27303;SDS011;14791;52.392;13.092;2023-05-07T19:54:35;1.10;;;1.10;;
27303;SDS011;14791;52.392;13.092;2023-05-07T19:57:04;1.10;;;1.10;;
27303;SDS011;14791;52.392;13.092;2023-05-07T19:59:33;1.37;;;1.13;;
27303;SDS011;14791;52.392;13.092;2023-05-07T20:02:02;1.00;;;1.00;;
27303;SDS011;14791;52.392;13.092;2023-05-07T20:04:31;1.57;;;1.37;;
27303;SDS011;14791;52.392;13.092;2023-05-07T20:07:02;1.07;;;1.07;;
27303;SDS011;14791;52.392;13.092;2023-05-07T20:09:31;1.10;;;1.10;;
27303;SDS011;14791;52.392;13.092;2023-05-07T20:12:00;1.00;;;1.00;;
27303;SDS011;14791;52.392;13.092;2023-05-07T20:14:29;1.10;;;1.10;;
27303;SDS011;14791;52.392;13.092;2023-05-07T20:16:59;1.30;;;1.30;;
27303;SDS011;14791;52.392;13.092;2023-05-07T20:19:28;0.90;;;0.90;;
27303;SDS011;14791;52.392;13.092;2023-05-07T20:21:57;1.30;;;1.30;;
27303;SDS011;14791;52.392;13.092;2023-05-07T20:24:26;1.47;;;1.37;;
27303;SDS011;14791;52.392;13.092;2023-05-07T20:26:55;1.27;;;1.27;;
27303;SDS011;14791;52.392;13.092;2023-05-07T20:29:25;1.02;;;1.02;;
27303;SDS011;14791;52.392;13.092;2023-05-07T20:31:53;1.10;;;1.10;;
27303;SDS011;14791;52.392;13.092;2023-05-07T20:34:22;1.20;;;1.10;;
27303;SDS011;14791;52.392;13.092;2023-05-07T20:36:51;1.27;;;1.27;;
27303;SDS011;14791;52.392;13.092;2023-05-07T20:39:20;1.20;;;1.20;;
27303;SDS011;14791;52.392;13.092;2023-05-07T20:41:51;1.23;;;1.23;;
27303;SDS011;14791;52.392;13.092;2023-05-07T20:44:20;1.30;;;1.20;;
27303;SDS011;14791;52.392;13.092;2023-05-07T20:46:49;1.20;;;1.20;;
27303;SDS011;14791;52.392;13.092;2023-05-07T20:49:18;1.27;;;1.23;;
27303;SDS011;14791;52.392;13.092;2023-05-07T20:51:48;1.20;;;1.20;;
27303;SDS011;14791;52.392;13.092;2023-05-07T20:54:18;1.10;;;1.10;;
27303;SDS011;14791;52.392;13.092;2023-05-07T20:56:48;1.53;;;1.53;;
27303;SDS011;14791;52.392;13.092;2023-05-07T20:59:17;1.20;;;1.20;;
27303;SDS011;14791;52.392;13.092;2023-05-07T21:01:46;1.40;;;1.40;;
27303;SDS011;14791;52.392;13.092;2023-05-07T21:04:15;1.43;;;1.43;;
27303;SDS011;14791;52.392;13.092;2023-05-07T21:06:44;1.30;;;1.30;;